Time;durP1;ratioP1;P1;durP2;ratioP2;P2;SDS_P1;SDS_P2;PMS_P1;PMS_P2;Temp;Humidity;BMP_temperature;BMP_pressure;BME280_temperature;BME280_humidity;BME280_pressure;Samples;Min_cycle;Max_cycle;Signal;HPM_P1;HPM_P2
2023/01/16 00:01:57;;;;;;;10.20;4.60;;;4.90;99.90;;;;;;5076552;28;20059;-88
2023/01/16 00:04:23;;;;;;;11.23;4.38;;;4.90;99.90;;;;;;5078779;28;20044;-89
2023/01/16 00:06:49;;;;;;;8.80;4.07;;;;;;;;;;5094191;28;20035;-90
2023/01/16 00:09:21;;;;;;;9.85;4.53;;;4.90;99.90;;;;;;5079055;28;20500;-89
2023/01/16 00:11:47;;;;;;;10.52;4.70;;;4.90;99.90;;;;;;5069591;28;20169;-88
2023/01/16 00:14:13;;;;;;;11.73;4.72;;;;;;;;;;5067854;28;20065;-89
2023/01/16 00:16:39;;;;;;;11.82;4.30;;;;;;;;;;5082400;28;20036;-88
2023/01/16 00:19:08;;;;;;;13.43;4.70;;;;;;;;;;5095589;28;20389;-89
2023/01/16 00:21:34;;;;;;;11.15;4.30;;;4.90;99.90;;;;;;5086568;28;20052;-89
2023/01/16 00:24:06;;;;;;;10.23;4.47;;;;;;;;;;5085858;28;20043;-88
2023/01/16 00:26:34;;;;;;;9.82;4.07;;;4.80;99.90;;;;;;5080436;28;20513;-91
2023/01/16 00:29:02;;;;;;;10.60;3.97;;;6.60;99.90;;;;;;5084904;28;20102;-90
2023/01/16 00:31:27;;;;;;;9.88;4.03;;;4.80;99.90;;;;;;5080087;28;20052;-89
2023/01/16 00:33:53;;;;;;;9.45;4.07;;;6.10;99.90;;;;;;5047856;28;20127;-89
2023/01/16 00:36:19;;;;;;;9.23;3.80;;;3.90;99.90;;;;;;5078695;28;20040;-89
2023/01/16 00:38:48;;;;;;;9.88;3.75;;;4.80;99.90;;;;;;5080118;28;20040;-89
2023/01/16 00:41:14;;;;;;;10.40;3.60;;;4.70;99.90;;;;;;5052398;28;20048;-88
2023/01/16 00:43:40;;;;;;;11.00;3.50;;;4.70;99.90;;;;;;5059201;28;20036;-89
2023/01/16 00:46:06;;;;;;;9.25;3.42;;;4.70;99.90;;;;;;5064014;28;20036;-90
2023/01/16 00:48:32;;;;;;;10.70;3.25;;;4.60;99.90;;;;;;5048477;28;20496;-90
2023/01/16 00:50:57;;;;;;;10.57;3.20;;;4.60;99.90;;;;;;5049029;28;20036;-90
2023/01/16 00:53:26;;;;;;;8.23;3.05;;;5.70;99.90;;;;;;5053010;28;20047;-88
2023/01/16 00:55:58;;;;;;;10.05;3.50;;;4.40;99.90;;;;;;5064518;28;20036;-89
2023/01/16 00:58:23;;;;;;;10.15;3.08;;;4.40;99.90;;;;;;5063343;28;20123;-89
2023/01/16 01:00:49;;;;;;;8.20;3.10;;;4.40;99.90;;;;;;5063055;28;20194;-89
2023/01/16 01:03:15;;;;;;;8.63;3.33;;;4.30;99.90;;;;;;5082098;28;20083;-88
2023/01/16 01:05:41;;;;;;;9.43;2.92;;;4.30;99.90;;;;;;5055940;28;20790;-88
2023/01/16 01:08:06;;;;;;;8.32;2.90;;;5.70;99.90;;;;;;5042266;28;20040;-88
2023/01/16 01:10:35;;;;;;;10.77;2.80;;;3.80;99.90;;;;;;5063477;28;20036;-88
2023/01/16 01:13:04;;;;;;;9.90;3.00;;;;;;;;;;5069151;28;20126;-88
2023/01/16 01:15:31;;;;;;;7.75;2.95;;;;;;;;;;5061722;28;20051;-88
2023/01/16 01:17:57;;;;;;;10.02;2.92;;;4.10;99.90;;;;;;5075357;28;20052;-90
2023/01/16 01:20:23;;;;;;;10.50;3.00;;;5.60;99.90;;;;;;5042258;28;20040;-90
2023/01/16 01:22:49;;;;;;;9.05;2.90;;;4.40;99.90;;;;;;5075537;28;20105;-89
2023/01/16 01:25:15;;;;;;;9.40;3.20;;;3.30;99.90;;;;;;5066298;28;20111;-90
2023/01/16 01:27:40;;;;;;;10.15;2.80;;;3.90;99.90;;;;;;5049594;28;20024;-87
2023/01/16 01:30:07;;;;;;;11.35;2.90;;;4.00;99.90;;;;;;5045583;28;20508;-89
2023/01/16 01:32:32;;;;;;;8.23;2.78;;;4.00;99.90;;;;;;5060153;28;20424;-89
2023/01/16 01:34:58;;;;;;;9.18;2.88;;;4.00;99.90;;;;;;5033475;28;20047;-88
2023/01/16 01:37:24;;;;;;;10.65;3.00;;;3.60;99.90;;;;;;5051545;28;20048;-88
2023/01/16 01:39:50;;;;;;;10.23;2.67;;;;;;;;;;5048210;28;20124;-89
2023/01/16 01:45:22;;;;;;;9.27;2.97;;;4.00;99.90;;;;;;5075134;28;20047;-89
2023/01/16 01:48:11;;;;;;;10.77;3.10;;;4.00;99.90;;;;;;5081266;28;20039;-90
2023/01/16 01:50:50;;;;;;;9.30;2.88;;;4.10;99.90;;;;;;5062831;28;20519;-90
2023/01/16 01:53:44;;;;;;;8.88;3.00;;;4.00;99.90;;;;;;5080076;28;20128;-90
2023/01/16 01:56:16;;;;;;;10.23;2.90;;;4.00;99.90;;;;;;5063414;28;20907;-89
2023/01/16 01:58:48;;;;;;;11.43;3.08;;;4.00;99.90;;;;;;5059008;28;20521;-90
2023/01/16 02:01:14;;;;;;;9.93;3.25;;;3.90;99.90;;;;;;5072562;28;20504;-89
2023/01/16 02:03:52;;;;;;;8.38;3.00;;;4.00;99.90;;;;;;5056476;28;20035;-89
2023/01/16 02:06:20;;;;;;;8.50;2.92;;;5.40;99.90;;;;;;5059844;28;20111;-90
2023/01/16 02:08:48;;;;;;;9.13;2.95;;;4.00;99.90;;;;;;5055628;28;20039;-90
2023/01/16 02:11:35;;;;;;;11.05;2.70;;;4.00;99.90;;;;;;5045678;28;20036;-89
2023/01/16 02:14:06;;;;;;;10.95;2.80;;;;;;;;;;5067927;28;20047;-88
2023/01/16 02:19:56;;;;;;;9.70;2.67;;;4.00;99.90;;;;;;5079076;28;20044;-89
2023/01/16 02:23:10;;;;;;;8.40;2.75;;;3.90;99.90;;;;;;5069483;28;20036;-89
2023/01/16 02:26:14;;;;;;;12.45;2.80;;;4.00;99.90;;;;;;5069554;28;20046;-89
2023/01/16 02:29:09;;;;;;;8.65;2.53;;;4.00;99.90;;;;;;5045914;28;20048;-89
2023/01/16 02:31:53;;;;;;;10.30;2.90;;;4.00;99.90;;;;;;5051513;28;20182;-88
2023/01/16 02:34:51;;;;;;;9.35;2.85;;;4.00;99.90;;;;;;5064677;28;20099;-89
2023/01/16 02:37:42;;;;;;;10.00;2.85;;;4.10;99.90;;;;;;5066872;28;20036;-90
2023/01/16 02:40:31;;;;;;;8.50;2.67;;;4.00;99.90;;;;;;5071938;28;20043;-88
2023/01/16 02:43:05;;;;;;;8.88;2.72;;;4.10;99.90;;;;;;5075033;28;20059;-90
2023/01/16 02:45:42;;;;;;;11.35;2.67;;;4.10;99.90;;;;;;5060887;28;20048;-89
2023/01/16 02:48:31;;;;;;;9.52;2.97;;;4.10;99.90;;;;;;5057431;28;20040;-89
2023/01/16 02:51:18;;;;;;;11.85;2.95;;;4.20;99.90;;;;;;5063663;28;20044;-89
2023/01/16 02:53:55;;;;;;;7.80;2.70;;;4.20;99.90;;;;;;5060452;28;20066;-90
2023/01/16 02:56:29;;;;;;;9.05;2.53;;;4.20;99.90;;;;;;5063829;28;20224;-89
2023/01/16 02:58:55;;;;;;;10.10;2.83;;;5.20;99.90;;;;;;5063100;28;20036;-89
2023/01/16 03:01:21;;;;;;;9.07;2.92;;;5.50;99.90;;;;;;5048188;28;20509;-89
2023/01/16 03:04:03;;;;;;;9.40;2.60;;;4.20;99.90;;;;;;5030745;28;20040;-89
2023/01/16 03:06:44;;;;;;;9.03;2.57;;;4.20;99.90;;;;;;5062838;28;20083;-91
2023/01/16 03:09:45;;;;;;;8.95;2.53;;;4.20;99.90;;;;;;5054143;28;20119;-90
2023/01/16 03:12:26;;;;;;;8.85;2.50;;;4.30;99.90;;;;;;5061275;28;20467;-90
2023/01/16 03:15:03;;;;;;;8.68;2.35;;;4.30;99.90;;;;;;5063232;28;20044;-89
2023/01/16 03:17:53;;;;;;;11.00;2.60;;;4.20;99.90;;;;;;5062182;28;20044;-89
2023/01/16 03:20:37;;;;;;;12.27;2.85;;;4.30;99.90;;;;;;5071468;28;20036;-88
2023/01/16 03:23:31;;;;;;;9.55;2.80;;;4.30;99.90;;;;;;5071158;28;20040;-89
2023/01/16 03:26:07;;;;;;;10.50;2.83;;;4.30;99.90;;;;;;5057704;28;20462;-89
2023/01/16 03:28:38;;;;;;;9.77;2.65;;;5.80;99.90;;;;;;5081208;28;20067;-89
2023/01/16 03:31:19;;;;;;;11.27;2.70;;;4.30;99.90;;;;;;5057439;28;20524;-89
2023/01/16 03:34:08;;;;;;;9.82;2.58;;;5.40;99.90;;;;;;5059987;28;20045;-88
2023/01/16 03:36:43;;;;;;;8.55;2.67;;;4.20;99.90;;;;;;5078477;28;20059;-89
2023/01/16 03:39:11;;;;;;;9.02;2.45;;;5.10;99.90;;;;;;5068342;28;20047;-89
2023/01/16 03:41:45;;;;;;;10.65;2.58;;;4.20;99.90;;;;;;5055082;28;20088;-89
2023/01/16 03:44:25;;;;;;;9.98;2.60;;;4.20;99.90;;;;;;5071500;28;20052;-89
2023/01/16 03:46:51;;;;;;;8.60;2.50;;;5.60;99.90;;;;;;5086861;28;20101;-88
2023/01/16 03:49:27;;;;;;;10.00;2.70;;;4.20;99.90;;;;;;5067183;28;20043;-88
2023/01/16 03:51:59;;;;;;;8.75;2.50;;;4.20;99.90;;;;;;5074949;28;20117;-88
2023/01/16 03:54:43;;;;;;;8.45;2.40;;;4.10;99.90;;;;;;5070757;28;20101;-89
2023/01/16 03:57:15;;;;;;;8.98;2.40;;;;;;;;;;5069735;28;20085;-88
2023/01/16 03:59:44;;;;;;;10.33;2.57;;;4.10;99.90;;;;;;5091646;28;20593;-88
2023/01/16 04:02:30;;;;;;;9.32;2.47;;;4.00;99.90;;;;;;5064794;28;20302;-89
2023/01/16 04:05:17;;;;;;;10.38;2.47;;;4.00;99.90;;;;;;5065710;28;20043;-89
2023/01/16 04:08:12;;;;;;;8.82;2.63;;;4.00;99.90;;;;;;5064602;28;20065;-88
2023/01/16 04:10:42;;;;;;;9.85;2.80;;;4.00;99.90;;;;;;5091851;28;20138;-90
2023/01/16 04:13:12;;;;;;;9.98;2.40;;;3.90;99.90;;;;;;5073828;28;20040;-89
2023/01/16 04:15:42;;;;;;;10.68;2.80;;;3.90;99.90;;;;;;5066668;28;20040;-89
2023/01/16 04:18:08;;;;;;;10.93;2.92;;;2.90;99.90;;;;;;5068434;28;20507;-88
2023/01/16 04:20:35;;;;;;;9.23;2.70;;;4.50;99.90;;;;;;5044874;28;20051;-89
2023/01/16 04:23:04;;;;;;;10.70;2.58;;;5.60;99.90;;;;;;5054048;28;20041;-90
2023/01/16 04:25:30;;;;;;;8.88;2.55;;;5.30;99.90;;;;;;5037190;28;20115;-90
2023/01/16 04:28:03;;;;;;;8.65;2.65;;;4.10;99.90;;;;;;5049682;28;20509;-89
2023/01/16 04:30:29;;;;;;;9.27;2.90;;;4.20;99.90;;;;;;5069432;28;20062;-89
2023/01/16 04:32:54;;;;;;;12.02;2.88;;;5.30;99.90;;;;;;5060125;28;20048;-89
2023/01/16 04:35:25;;;;;;;8.13;2.70;;;4.20;99.90;;;;;;5069844;28;20075;-89
2023/01/16 04:37:51;;;;;;;9.30;3.10;;;4.20;99.90;;;;;;5052651;28;21982;-88
2023/01/16 04:40:17;;;;;;;12.40;3.20;;;4.20;99.90;;;;;;5071426;28;20043;-88
2023/01/16 04:42:42;;;;;;;9.18;3.33;;;5.40;99.90;;;;;;5057084;28;20163;-89
2023/01/16 04:45:09;;;;;;;8.15;3.10;;;4.20;99.90;;;;;;5062589;28;20059;-90
2023/01/16 04:47:34;;;;;;;10.07;3.40;;;4.20;99.90;;;;;;5055823;28;20127;-89
2023/01/16 04:50:00;;;;;;;10.60;3.35;;;4.90;99.90;;;;;;5067319;28;20124;-89
2023/01/16 04:52:26;;;;;;;10.43;3.30;;;4.80;99.90;;;;;;5067321;28;20040;-89
2023/01/16 04:54:54;;;;;;;12.18;3.88;;;4.30;99.90;;;;;;5032986;28;20096;-89
2023/01/16 04:57:20;;;;;;;10.82;3.95;;;4.30;99.90;;;;;;5050566;28;20071;-89
2023/01/16 04:59:45;;;;;;;11.38;3.58;;;4.00;99.90;;;;;;5063331;28;20067;-88
2023/01/16 05:02:11;;;;;;;9.68;3.50;;;6.20;99.90;;;;;;5036280;28;20060;-88
2023/01/16 05:04:37;;;;;;;11.68;3.90;;;4.60;99.90;;;;;;5084421;28;20150;-89
2023/01/16 05:07:03;;;;;;;10.02;3.63;;;5.90;99.90;;;;;;5070119;28;20040;-89
2023/01/16 05:09:28;;;;;;;11.70;4.00;;;4.50;99.90;;;;;;5052891;28;20056;-89
2023/01/16 05:11:54;;;;;;;10.73;4.20;;;6.10;99.90;;;;;;5050003;28;20506;-89
2023/01/16 05:14:20;;;;;;;13.80;3.97;;;4.40;99.90;;;;;;5063093;28;20044;-89
2023/01/16 05:16:46;;;;;;;11.95;4.28;;;4.30;99.90;;;;;;5052159;28;20055;-88
2023/01/16 05:19:12;;;;;;;10.25;4.25;;;;;;;;;;5053841;28;20040;-88
2023/01/16 05:21:38;;;;;;;13.95;4.47;;;4.40;99.90;;;;;;5066981;28;20036;-87
2023/01/16 05:24:04;;;;;;;14.95;4.60;;;4.40;99.90;;;;;;5059842;28;20040;-89
2023/01/16 05:26:30;;;;;;;10.90;4.43;;;;;;;;;;5060567;28;20036;-89
2023/01/16 05:28:56;;;;;;;13.05;4.68;;;4.40;99.90;;;;;;5075845;28;20071;-87
2023/01/16 05:31:22;;;;;;;13.00;5.03;;;4.60;99.90;;;;;;5049675;28;20075;-88
2023/01/16 05:33:47;;;;;;;12.75;5.22;;;4.40;99.90;;;;;;5078075;28;20040;-88
2023/01/16 05:36:13;;;;;;;11.13;4.85;;;5.50;99.90;;;;;;5046235;28;20032;-90
2023/01/16 05:38:39;;;;;;;14.80;5.68;;;6.20;99.90;;;;;;5031881;28;20036;-89
2023/01/16 05:41:04;;;;;;;11.90;5.63;;;4.40;99.90;;;;;;5048257;28;20113;-88
2023/01/16 05:43:31;;;;;;;13.35;6.22;;;4.90;99.90;;;;;;5048055;28;20036;-88
2023/01/16 05:45:56;;;;;;;14.40;5.97;;;6.10;99.90;;;;;;5045840;28;20063;-89
2023/01/16 05:48:23;;;;;;;13.10;5.22;;;4.30;99.90;;;;;;5040527;28;20036;-89
2023/01/16 05:50:50;;;;;;;14.38;5.90;;;4.20;99.90;;;;;;5035485;28;20028;-89
2023/01/16 05:53:15;;;;;;;13.93;6.00;;;4.20;99.90;;;;;;5057876;28;20083;-87
2023/01/16 05:55:46;;;;;;;15.05;6.70;;;4.80;99.90;;;;;;5019290;28;20075;-88
2023/01/16 05:58:14;;;;;;;15.10;6.53;;;4.10;99.90;;;;;;5062059;28;20514;-88
2023/01/16 06:00:41;;;;;;;15.13;6.93;;;4.10;99.90;;;;;;5040680;28;20105;-88
2023/01/16 06:03:08;;;;;;;13.13;6.78;;;5.20;99.90;;;;;;5045177;28;20468;-88
2023/01/16 06:05:34;;;;;;;13.27;6.97;;;5.10;99.90;;;;;;5056370;28;20036;-88
2023/01/16 06:08:06;;;;;;;15.43;6.50;;;4.40;99.90;;;;;;5047610;28;20036;-88
2023/01/16 06:10:32;;;;;;;14.40;6.72;;;;;;;;;;5052713;28;20032;-89
2023/01/16 06:12:59;;;;;;;17.02;6.90;;;3.80;99.90;;;;;;5070765;28;20043;-88
2023/01/16 06:15:25;;;;;;;17.77;7.35;;;4.00;99.90;;;;;;5078060;28;20513;-89
2023/01/16 06:17:53;;;;;;;14.25;7.00;;;4.90;99.90;;;;;;5055722;28;20076;-89
2023/01/16 06:20:19;;;;;;;14.82;7.63;;;5.20;99.90;;;;;;5040752;28;20032;-88
2023/01/16 06:22:45;;;;;;;14.50;7.53;;;3.80;99.90;;;;;;5057257;28;20450;-88
2023/01/16 06:25:11;;;;;;;15.38;8.32;;;3.30;99.90;;;;;;5055674;28;20087;-88
2023/01/16 06:27:37;;;;;;;16.52;7.97;;;3.70;99.90;;;;;;5045600;28;20044;-88
2023/01/16 06:30:07;;;;;;;17.00;7.88;;;3.80;99.90;;;;;;5052130;28;20086;-89
2023/01/16 06:32:33;;;;;;;15.98;8.20;;;3.70;99.90;;;;;;5055905;28;20440;-89
2023/01/16 06:34:59;;;;;;;16.60;9.13;;;3.70;99.90;;;;;;5044862;28;20046;-88
2023/01/16 06:37:24;;;;;;;18.35;9.38;;;3.70;99.90;;;;;;5051134;28;20040;-88
2023/01/16 06:39:50;;;;;;;15.38;8.65;;;3.70;99.90;;;;;;5053067;28;20067;-88
2023/01/16 06:42:16;;;;;;;16.95;9.07;;;;;;;;;;5051041;28;20047;-90
2023/01/16 06:44:42;;;;;;;16.85;8.55;;;3.70;99.90;;;;;;5075044;28;20106;-89
2023/01/16 06:47:09;;;;;;;16.08;9.30;;;5.50;99.90;;;;;;5047930;28;20051;-89
2023/01/16 06:49:34;;;;;;;17.52;8.43;;;4.80;99.90;;;;;;5059927;28;20032;-89
2023/01/16 06:52:00;;;;;;;15.90;8.65;;;3.80;99.90;;;;;;5073829;28;20052;-89
2023/01/16 06:54:26;;;;;;;16.88;8.40;;;3.80;99.90;;;;;;5046036;28;20501;-88
2023/01/16 06:56:52;;;;;;;18.45;8.57;;;3.60;99.90;;;;;;5058959;28;20040;-88
2023/01/16 06:59:18;;;;;;;15.20;8.25;;;3.80;99.90;;;;;;5057513;28;20048;-89
2023/01/16 07:01:44;;;;;;;16.50;8.15;;;5.70;99.90;;;;;;5044037;28;20045;-88
2023/01/16 07:04:10;;;;;;;15.98;8.07;;;3.80;99.90;;;;;;5060408;28;20034;-88
2023/01/16 07:06:37;;;;;;;16.55;8.25;;;;;;;;;;5040086;28;20066;-89
2023/01/16 07:09:03;;;;;;;15.93;7.70;;;;;;;;;;5047482;28;20040;-89
2023/01/16 07:11:29;;;;;;;19.48;7.53;;;4.90;99.90;;;;;;5077782;28;20037;-89
2023/01/16 07:22:34;;;;;;;14.32;7.90;;;5.20;99.90;;;;;;5060872;28;20523;-90
2023/01/16 07:24:57;;;;;;;17.48;8.45;;;5.20;99.90;;;;;;5063123;28;20105;-85
2023/01/16 07:27:23;;;;;;;17.17;8.40;;;3.70;99.90;;;;;;5051870;28;20066;-88
2023/01/16 07:29:56;;;;;;;17.60;8.95;;;3.60;99.90;;;;;;5054149;28;20059;-89
2023/01/16 07:32:22;;;;;;;18.77;8.25;;;3.60;99.90;;;;;;5063105;28;20529;-89
2023/01/16 07:34:47;;;;;;;18.27;8.05;;;4.30;99.90;;;;;;5059833;28;20040;-85
2023/01/16 07:37:16;;;;;;;16.33;7.85;;;3.60;99.90;;;;;;5046940;28;20390;-86
2023/01/16 07:39:41;;;;;;;13.50;7.32;;;3.60;99.90;;;;;;5040908;28;20055;-85
2023/01/16 07:42:08;;;;;;;17.15;7.78;;;3.50;99.90;;;;;;5032376;28;20040;-87
2023/01/16 07:44:34;;;;;;;14.60;7.47;;;3.50;99.90;;;;;;5052054;28;20605;-87
2023/01/16 07:46:59;;;;;;;15.40;7.20;;;3.70;99.90;;;;;;5054631;28;20222;-85
2023/01/16 07:49:28;;;;;;;14.20;6.57;;;3.50;99.90;;;;;;5076445;28;20086;-86
2023/01/16 07:51:56;;;;;;;14.38;6.57;;;4.20;99.90;;;;;;5041606;28;20039;-85
2023/01/16 07:54:25;;;;;;;13.93;6.55;;;3.50;99.90;;;;;;5049113;28;20216;-86
2023/01/16 07:56:53;;;;;;;17.52;7.45;;;3.50;99.90;;;;;;5058193;28;20036;-88
2023/01/16 07:59:19;;;;;;;15.80;7.05;;;3.40;99.90;;;;;;5030968;28;20036;-87
2023/01/16 08:01:52;;;;;;;17.52;7.53;;;3.90;99.90;;;;;;5053701;28;20044;-90
2023/01/16 08:04:17;;;;;;;;;;;3.40;99.90;;;;;;5064440;28;20101;-84
2023/01/16 08:06:44;;;;;;;15.82;6.75;;;4.70;99.90;;;;;;5061125;28;20331;-86
2023/01/16 08:09:20;;;;;;;18.35;7.53;;;3.40;99.90;;;;;;5044994;28;20039;-86
2023/01/16 08:11:49;;;;;;;15.48;7.00;;;;;;;;;;5038581;28;20409;-86
2023/01/16 08:14:15;;;;;;;17.10;7.63;;;3.40;99.90;;;;;;5074806;28;20033;-86
2023/01/16 08:16:41;;;;;;;15.63;7.13;;;3.40;99.90;;;;;;5063005;28;20040;-89
2023/01/16 08:19:22;;;;;;;14.80;6.82;;;3.40;99.90;;;;;;5044447;28;20067;-86
2023/01/16 08:21:50;;;;;;;14.32;6.88;;;2.60;99.90;;;;;;5043872;28;20375;-88
2023/01/16 08:24:17;;;;;;;14.88;6.60;;;3.50;99.90;;;;;;5041124;28;20116;-86
2023/01/16 08:26:43;;;;;;;15.15;6.68;;;3.50;99.90;;;;;;5034431;28;20075;-89
2023/01/16 08:29:22;;;;;;;15.13;6.90;;;4.00;99.90;;;;;;5031349;28;20036;-89
2023/01/16 08:31:51;;;;;;;13.55;6.78;;;3.60;99.90;;;;;;5056227;28;20489;-85
2023/01/16 08:34:17;;;;;;;14.48;6.45;;;5.30;99.90;;;;;;5059591;28;20043;-88
2023/01/16 08:36:51;;;;;;;13.95;5.95;;;3.60;99.90;;;;;;5028995;28;20233;-88
2023/01/16 08:39:16;;;;;;;12.30;5.80;;;3.60;99.90;;;;;;5044313;28;20028;-89
2023/01/16 08:52:46;;;;;;;12.43;5.80;;;3.50;99.90;;;;;;5070890;28;20052;-88
2023/01/16 08:55:21;;;;;;;16.08;6.32;;;3.80;99.90;;;;;;5070183;28;20044;-91
2023/01/16 08:57:47;;;;;;;13.20;5.80;;;4.90;99.90;;;;;;5054675;28;20043;-87
2023/01/16 09:00:18;;;;;;;13.57;6.10;;;3.80;99.90;;;;;;5044864;28;20036;-86
2023/01/16 09:03:34;;;;;;;14.82;5.88;;;3.90;99.90;;;;;;5074926;28;20492;-88
2023/01/16 09:06:13;;;;;;;15.48;6.40;;;;;;;;;;5058867;28;20051;-87
2023/01/16 09:08:38;;;;;;;13.68;5.78;;;3.90;99.90;;;;;;5052437;28;20631;-87
2023/01/16 09:14:00;;;;;;;;;;;3.90;99.90;;;;;;5066188;28;20055;-85
2023/01/16 09:16:26;;;;;;;16.02;6.53;;;5.50;99.90;;;;;;5076089;28;19924;-86
2023/01/16 09:18:55;;;;;;;12.95;5.28;;;3.90;99.90;;;;;;5053389;28;20105;-89
2023/01/16 09:21:28;;;;;;;12.15;5.75;;;3.90;99.90;;;;;;5052970;28;20100;-87
2023/01/16 09:24:02;;;;;;;15.13;5.90;;;;;;;;;;5042698;28;20044;-87
2023/01/16 09:26:31;;;;;;;13.27;5.40;;;4.00;99.90;;;;;;5054928;28;20040;-86
2023/01/16 09:28:57;;;;;;;11.73;5.40;;;5.30;99.90;;;;;;5041803;28;20044;-86
2023/01/16 09:31:25;;;;;;;12.40;5.63;;;5.00;99.90;;;;;;5050648;28;20072;-87
2023/01/16 09:33:52;;;;;;;11.10;5.32;;;4.50;99.90;;;;;;5032046;28;20033;-87
2023/01/16 09:39:47;;;;;;;11.80;5.13;;;4.10;99.90;;;;;;5069822;28;20133;-87
2023/01/16 09:45:38;;;;;;;11.23;5.68;;;4.20;99.90;;;;;;5071198;28;20052;-86
2023/01/16 09:48:12;;;;;;;12.15;4.55;;;4.20;99.90;;;;;;5064791;28;20048;-86
2023/01/16 10:00:04;;;;;;;12.00;4.85;;;4.20;99.90;;;;;;5069910;28;20040;-88
2023/01/16 10:03:01;;;;;;;9.80;4.10;;;4.30;99.90;;;;;;5074792;28;20043;-88
2023/01/16 10:09:00;;;;;;;10.18;4.03;;;;;;;;;;5032482;28;20067;-87
2023/01/16 10:12:07;;;;;;;12.18;4.40;;;;;;;;;;5016831;28;20107;-89
2023/01/16 10:15:14;;;;;;;;;;;;;;;;;;;;;
2023/01/16 10:18:06;;;;;;;10.98;3.85;;;4.40;99.90;;;;;;5072003;28;20082;-87
2023/01/16 10:21:37;;;;;;;;;;;;;;;;;;;;;
2023/01/16 10:24:26;;;;;;;9.07;3.45;;;;;;;;;;5069651;28;20051;-85
2023/01/16 10:27:27;;;;;;;10.60;4.00;;;4.40;99.90;;;;;;5063884;28;20048;-88
2023/01/16 10:34:43;;;;;;;8.95;3.50;;;4.40;99.90;;;;;;4998699;28;20125;-89
2023/01/16 10:37:12;;;;;;;9.35;3.38;;;4.40;99.90;;;;;;5043408;28;20040;-88
2023/01/16 10:39:58;;;;;;;11.18;3.25;;;4.40;99.90;;;;;;5024534;28;20170;-88
2023/01/16 10:52:20;;;;;;;7.20;2.72;;;4.40;99.90;;;;;;5039881;28;20040;-88
2023/01/16 10:55:24;;;;;;;8.25;2.67;;;4.40;99.90;;;;;;5053669;28;20025;-91
2023/01/16 10:58:34;;;;;;;9.30;2.88;;;4.40;99.90;;;;;;5050935;28;20124;-91
2023/01/16 11:01:25;;;;;;;8.88;2.83;;;4.40;99.90;;;;;;5049310;28;20056;-91
2023/01/16 11:03:56;;;;;;;7.45;2.40;;;4.50;99.90;;;;;;5055556;28;20048;-89
2023/01/16 11:06:25;;;;;;;6.20;2.25;;;4.40;99.90;;;;;;5071984;28;20049;-89
2023/01/16 11:09:18;;;;;;;8.40;2.10;;;4.40;99.90;;;;;;5075999;28;20110;-89
2023/01/16 11:20:51;;;;;;;6.63;2.15;;;;;;;;;;5077024;28;20189;-90
2023/01/16 11:23:22;;;;;;;6.13;1.95;;;4.00;99.90;;;;;;5072134;28;20048;-88
2023/01/16 11:26:09;;;;;;;6.65;2.30;;;4.00;99.90;;;;;;5051358;28;20043;-88
2023/01/16 11:28:37;;;;;;;5.97;2.08;;;4.00;99.90;;;;;;5053984;28;20085;-89
2023/01/16 11:35:38;;;;;;;;;;;;;;;;;;;;;
2023/01/16 11:38:07;;;;;;;7.75;1.92;;;4.00;99.90;;;;;;5078886;28;20036;-88
2023/01/16 11:40:47;;;;;;;7.15;2.00;;;4.00;99.90;;;;;;5054041;28;20085;-88
2023/01/16 11:46:29;;;;;;;5.93;1.80;;;4.00;99.90;;;;;;5065268;28;20064;-89
2023/01/16 11:49:14;;;;;;;5.97;2.00;;;4.00;99.90;;;;;;5073859;28;20086;-88
2023/01/16 11:51:45;;;;;;;9.50;2.40;;;4.10;99.90;;;;;;5056716;28;20496;-89
2023/01/16 11:54:19;;;;;;;5.90;2.10;;;4.00;99.90;;;;;;5049602;28;20033;-92
2023/01/16 11:57:22;;;;;;;5.57;2.10;;;4.00;99.90;;;;;;5065138;28;20179;-90
2023/01/16 12:00:19;;;;;;;7.10;1.90;;;4.10;99.90;;;;;;5056720;28;20067;-91
2023/01/16 12:03:45;;;;;;;6.00;2.00;;;4.10;99.90;;;;;;5059585;28;20033;-91
2023/01/16 12:07:11;;;;;;;7.40;2.10;;;4.10;99.90;;;;;;5013455;28;20049;-90
2023/01/16 12:09:38;;;;;;;6.25;2.05;;;;;;;;;;4991365;28;20076;-91
2023/01/16 12:15:10;;;;;;;6.43;2.20;;;4.10;99.90;;;;;;5078979;28;20052;-90
2023/01/16 12:17:55;;;;;;;6.68;1.88;;;4.10;99.90;;;;;;5060792;28;20489;-90
2023/01/16 12:20:46;;;;;;;7.68;2.22;;;4.10;99.90;;;;;;5065664;28;20296;-91
2023/01/16 12:23:51;;;;;;;;;;;;;;;;;;;;;
2023/01/16 12:26:20;;;;;;;5.45;2.00;;;;;;;;;;5074935;28;20540;-90
2023/01/16 12:29:17;;;;;;;;;;;;;;;;;;;;;
2023/01/16 12:32:37;;;;;;;;;;;;;;;;;;;;;
2023/01/16 12:35:50;;;;;;;6.82;1.98;;;4.20;99.90;;;;;;5077471;28;20056;-90
2023/01/16 12:38:19;;;;;;;7.53;2.10;;;;;;;;;;5065052;28;20044;-89
2023/01/16 12:44:11;;;;;;;6.22;2.00;;;4.20;99.90;;;;;;5072836;28;20480;-88
2023/01/16 12:46:55;;;;;;;7.88;2.10;;;4.20;99.90;;;;;;5074157;28;20037;-91
2023/01/16 12:49:45;;;;;;;5.88;2.10;;;4.30;99.90;;;;;;5059439;28;20040;-88
2023/01/16 12:52:20;;;;;;;5.47;1.92;;;4.30;99.90;;;;;;5056139;28;20117;-90
2023/01/16 12:55:01;;;;;;;6.78;2.22;;;;;;;;;;5053805;28;20115;-88
2023/01/16 12:57:31;;;;;;;8.77;3.00;;;;;;;;;;5057897;28;20043;-88
2023/01/16 13:00:30;;;;;;;6.35;2.40;;;4.40;99.90;;;;;;5065441;28;20056;-91
2023/01/16 13:03:19;;;;;;;8.90;2.50;;;4.40;99.90;;;;;;5054205;28;20705;-89
2023/01/16 13:05:48;;;;;;;6.88;2.28;;;4.40;99.90;;;;;;5076815;28;20130;-90
2023/01/16 13:08:23;;;;;;;6.05;2.33;;;4.40;99.90;;;;;;5044388;28;20097;-91
2023/01/16 13:13:59;;;;;;;9.40;2.53;;;4.90;99.90;;;;;;5073508;28;20075;-89
2023/01/16 13:16:45;;;;;;;6.75;2.20;;;4.30;99.90;;;;;;5059995;28;20040;-92
2023/01/16 13:19:21;;;;;;;6.40;2.33;;;4.30;99.90;;;;;;5056709;28;20036;-93
2023/01/16 13:22:19;;;;;;;7.78;2.50;;;4.40;99.90;;;;;;5048774;28;20771;-87
2023/01/16 13:25:09;;;;;;;8.88;2.92;;;4.40;99.90;;;;;;5056120;28;20119;-91
2023/01/16 13:27:43;;;;;;;6.97;2.42;;;4.50;99.90;;;;;;5058292;28;20135;-91
2023/01/16 13:30:17;;;;;;;8.13;3.08;;;4.40;99.90;;;;;;5051431;28;20036;-91
2023/01/16 13:33:13;;;;;;;7.20;2.80;;;4.50;99.90;;;;;;5061210;28;20035;-89
2023/01/16 13:35:49;;;;;;;7.57;3.10;;;4.50;99.90;;;;;;5059098;28;20088;-89
2023/01/16 13:38:30;;;;;;;9.73;2.97;;;4.50;99.90;;;;;;5058832;28;20047;-90
2023/01/16 13:41:22;;;;;;;9.63;3.58;;;;;;;;;;5058117;28;20046;-88
2023/01/16 13:47:03;;;;;;;9.18;3.63;;;4.50;99.90;;;;;;5072994;28;20052;-90
2023/01/16 13:49:31;;;;;;;10.75;4.40;;;4.50;99.90;;;;;;5034408;28;20107;-86
2023/01/16 13:51:58;;;;;;;8.98;4.03;;;;;;;;;;5052453;28;20496;-91
2023/01/16 13:54:46;;;;;;;10.98;3.40;;;4.60;99.90;;;;;;5061183;28;20047;-91
2023/01/16 13:57:23;;;;;;;8.80;3.35;;;4.60;99.90;;;;;;5077781;28;20036;-90
2023/01/16 14:03:34;;;;;;;8.32;2.85;;;4.60;99.90;;;;;;5073005;28;20063;-89
2023/01/16 14:06:21;;;;;;;8.02;2.85;;;4.70;99.90;;;;;;5043056;28;21259;-89
2023/01/16 14:09:14;;;;;;;7.18;2.58;;;4.60;99.90;;;;;;5056860;28;20524;-93
2023/01/16 14:11:58;;;;;;;7.50;2.67;;;4.60;99.90;;;;;;5050273;28;20666;-89
2023/01/16 14:18:22;;;;;;;8.65;2.60;;;4.60;99.90;;;;;;5072820;28;20041;-89
2023/01/16 14:21:03;;;;;;;7.93;2.67;;;4.70;99.90;;;;;;5054503;28;20042;-91
2023/01/16 14:26:53;;;;;;;6.53;2.33;;;4.70;99.90;;;;;;5069036;28;20497;-89
2023/01/16 14:29:25;;;;;;;7.28;2.47;;;4.70;99.90;;;;;;5051685;28;20060;-89
2023/01/16 14:32:01;;;;;;;6.13;2.20;;;4.70;99.90;;;;;;5067264;28;20036;-91
2023/01/16 14:34:44;;;;;;;7.25;2.50;;;4.70;99.90;;;;;;5070360;28;20047;-88
2023/01/16 14:37:36;;;;;;;7.30;2.53;;;4.70;99.90;;;;;;5066753;28;20075;-92
2023/01/16 14:40:11;;;;;;;7.85;2.83;;;4.70;99.90;;;;;;5053836;28;20048;-87
2023/01/16 14:57:12;;;;;;;9.05;3.20;;;4.70;99.90;;;;;;5079128;28;20044;-89
2023/01/16 14:59:50;;;;;;;6.93;2.63;;;4.70;99.90;;;;;;5066233;28;20040;-90
2023/01/16 15:02:34;;;;;;;8.15;2.80;;;4.70;99.90;;;;;;5058595;28;20153;-89
2023/01/16 15:05:13;;;;;;;7.13;2.60;;;4.70;99.90;;;;;;5064037;28;20392;-88
2023/01/16 15:07:57;;;;;;;7.22;2.53;;;4.50;99.90;;;;;;5054991;28;20071;-91
2023/01/16 15:10:38;;;;;;;7.85;2.80;;;5.10;99.90;;;;;;5039486;28;20033;-89
2023/01/16 15:14:25;;;;;;;5.50;2.28;;;4.70;99.90;;;;;;5061879;28;20036;-88
2023/01/16 15:22:36;;;;;;;7.15;2.35;;;4.70;99.90;;;;;;5077603;28;20133;-88
2023/01/16 15:25:13;;;;;;;6.85;2.20;;;3.80;99.90;;;;;;5057937;28;20071;-87
2023/01/16 15:27:40;;;;;;;8.02;2.78;;;4.70;99.90;;;;;;5054016;28;20115;-88
2023/01/16 15:30:17;;;;;;;11.10;4.07;;;5.40;99.90;;;;;;5051013;28;20374;-88
2023/01/16 15:36:01;;;;;;;10.00;3.70;;;;;;;;;;5066921;28;20040;-88
2023/01/16 15:38:35;;;;;;;11.55;4.47;;;4.60;99.90;;;;;;5044442;28;20047;-88
2023/01/16 15:41:02;;;;;;;10.98;4.40;;;6.10;99.90;;;;;;5063772;28;20115;-89
2023/01/16 15:46:45;;;;;;;9.68;3.97;;;4.60;99.90;;;;;;5054169;28;20048;-88
2023/01/16 15:49:21;;;;;;;10.07;3.85;;;;;;;;;;5065851;28;20032;-89
2023/01/16 15:51:55;;;;;;;10.32;4.18;;;4.70;99.90;;;;;;5077402;28;20121;-88
2023/01/16 15:54:24;;;;;;;10.07;4.03;;;3.20;99.90;;;;;;5071585;28;20047;-87
2023/01/16 15:56:50;;;;;;;11.80;4.30;;;;;;;;;;5059755;28;20036;-89